sensor_id;sensor_type;location;lat;lon;timestamp;temperature;humidity
16515;DHT22;8370;52.556;7.970;2022-10-31T00:00:53;13.50;99.90
16515;DHT22;8370;52.556;7.970;2022-10-31T00:03:18;13.50;99.90
16515;DHT22;8370;52.556;7.970;2022-10-31T00:05:46;13.50;99.90
16515;DHT22;8370;52.556;7.970;2022-10-31T00:08:12;13.40;99.90
16515;DHT22;8370;52.556;7.970;2022-10-31T00:10:42;13.30;99.90
16515;DHT22;8370;52.556;7.970;2022-10-31T00:13:09;13.40;99.90
16515;DHT22;8370;52.556;7.970;2022-10-31T00:15:36;13.30;99.90
16515;DHT22;8370;52.556;7.970;2022-10-31T00:18:02;13.20;99.90
16515;DHT22;8370;52.556;7.970;2022-10-31T00:20:28;13.20;99.90
16515;DHT22;8370;52.556;7.970;2022-10-31T00:22:57;13.10;99.90
16515;DHT22;8370;52.556;7.970;2022-10-31T00:25:22;13.10;99.90
16515;DHT22;8370;52.556;7.970;2022-10-31T00:27:48;13.00;99.90
16515;DHT22;8370;52.556;7.970;2022-10-31T00:30:13;13.00;99.90
16515;DHT22;8370;52.556;7.970;2022-10-31T00:32:39;13.00;99.90
16515;DHT22;8370;52.556;7.970;2022-10-31T00:35:05;13.00;99.90
16515;DHT22;8370;52.556;7.970;2022-10-31T00:37:30;12.90;99.90
16515;DHT22;8370;52.556;7.970;2022-10-31T00:39:56;12.90;99.90
16515;DHT22;8370;52.556;7.970;2022-10-31T00:42:21;12.90;99.90
16515;DHT22;8370;52.556;7.970;2022-10-31T00:44:47;12.80;99.90
16515;DHT22;8370;52.556;7.970;2022-10-31T00:47:12;12.80;99.90
16515;DHT22;8370;52.556;7.970;2022-10-31T00:49:38;12.80;99.90
16515;DHT22;8370;52.556;7.970;2022-10-31T00:52:03;12.80;99.90
16515;DHT22;8370;52.556;7.970;2022-10-31T00:54:29;12.80;99.90
16515;DHT22;8370;52.556;7.970;2022-10-31T00:56:56;12.80;99.90
16515;DHT22;8370;52.556;7.970;2022-10-31T00:59:22;12.70;99.90
16515;DHT22;8370;52.556;7.970;2022-10-31T01:01:47;12.70;99.90
16515;DHT22;8370;52.556;7.970;2022-10-31T01:04:13;12.60;99.90
16515;DHT22;8370;52.556;7.970;2022-10-31T01:06:38;12.60;99.90
16515;DHT22;8370;52.556;7.970;2022-10-31T01:09:04;12.60;99.90
16515;DHT22;8370;52.556;7.970;2022-10-31T01:11:29;12.60;99.90
16515;DHT22;8370;52.556;7.970;2022-10-31T01:13:55;12.60;99.90
16515;DHT22;8370;52.556;7.970;2022-10-31T01:16:23;12.60;99.90
16515;DHT22;8370;52.556;7.970;2022-10-31T01:18:49;12.60;99.90
16515;DHT22;8370;52.556;7.970;2022-10-31T01:21:20;12.60;99.90
16515;DHT22;8370;52.556;7.970;2022-10-31T01:23:47;12.60;99.90
16515;DHT22;8370;52.556;7.970;2022-10-31T01:26:18;12.60;99.90
16515;DHT22;8370;52.556;7.970;2022-10-31T01:29:02;12.60;99.90
16515;DHT22;8370;52.556;7.970;2022-10-31T01:31:30;12.60;99.90
16515;DHT22;8370;52.556;7.970;2022-10-31T01:33:56;12.60;99.90
16515;DHT22;8370;52.556;7.970;2022-10-31T01:36:29;12.60;99.90
16515;DHT22;8370;52.556;7.970;2022-10-31T01:39:00;12.60;99.90
16515;DHT22;8370;52.556;7.970;2022-10-31T01:41:29;12.60;99.90
16515;DHT22;8370;52.556;7.970;2022-10-31T01:44:01;12.50;99.90
16515;DHT22;8370;52.556;7.970;2022-10-31T01:46:36;12.50;99.90
16515;DHT22;8370;52.556;7.970;2022-10-31T01:49:06;12.40;99.90
16515;DHT22;8370;52.556;7.970;2022-10-31T01:51:37;12.40;99.90
16515;DHT22;8370;52.556;7.970;2022-10-31T01:54:11;12.40;99.90
16515;DHT22;8370;52.556;7.970;2022-10-31T01:56:40;12.40;99.90
16515;DHT22;8370;52.556;7.970;2022-10-31T01:59:10;12.40;99.90
16515;DHT22;8370;52.556;7.970;2022-10-31T02:01:37;12.40;99.90
16515;DHT22;8370;52.556;7.970;2022-10-31T02:04:03;12.40;99.90
16515;DHT22;8370;52.556;7.970;2022-10-31T02:09:02;12.30;99.90
16515;DHT22;8370;52.556;7.970;2022-10-31T02:11:29;12.30;99.90
16515;DHT22;8370;52.556;7.970;2022-10-31T02:13:55;12.30;99.90
16515;DHT22;8370;52.556;7.970;2022-10-31T02:16:21;12.20;99.90
16515;DHT22;8370;52.556;7.970;2022-10-31T02:18:47;12.20;99.90
16515;DHT22;8370;52.556;7.970;2022-10-31T02:21:39;12.20;99.90
16515;DHT22;8370;52.556;7.970;2022-10-31T02:26:54;12.20;99.90
16515;DHT22;8370;52.556;7.970;2022-10-31T02:29:50;12.20;99.90
16515;DHT22;8370;52.556;7.970;2022-10-31T02:35:24;12.10;99.90
16515;DHT22;8370;52.556;7.970;2022-10-31T02:38:22;12.10;99.90
16515;DHT22;8370;52.556;7.970;2022-10-31T02:41:07;12.10;99.90
16515;DHT22;8370;52.556;7.970;2022-10-31T02:43:52;12.00;99.90
16515;DHT22;8370;52.556;7.970;2022-10-31T02:48:53;11.90;99.90
16515;DHT22;8370;52.556;7.970;2022-10-31T02:51:20;11.90;99.90
16515;DHT22;8370;52.556;7.970;2022-10-31T02:53:45;11.90;99.90
16515;DHT22;8370;52.556;7.970;2022-10-31T02:56:16;11.80;99.90
16515;DHT22;8370;52.556;7.970;2022-10-31T02:58:47;11.80;99.90
16515;DHT22;8370;52.556;7.970;2022-10-31T03:01:54;11.70;99.90
16515;DHT22;8370;52.556;7.970;2022-10-31T03:07:30;11.70;99.90
16515;DHT22;8370;52.556;7.970;2022-10-31T03:10:01;11.70;99.90
16515;DHT22;8370;52.556;7.970;2022-10-31T03:12:46;11.70;99.90
16515;DHT22;8370;52.556;7.970;2022-10-31T03:15:22;11.60;99.90
16515;DHT22;8370;52.556;7.970;2022-10-31T03:20:41;11.50;99.90
16515;DHT22;8370;52.556;7.970;2022-10-31T03:23:11;11.60;99.90
16515;DHT22;8370;52.556;7.970;2022-10-31T03:25:39;11.60;99.90
16515;DHT22;8370;52.556;7.970;2022-10-31T03:28:06;11.60;99.90
16515;DHT22;8370;52.556;7.970;2022-10-31T03:30:36;11.60;99.90
16515;DHT22;8370;52.556;7.970;2022-10-31T03:33:04;11.60;99.90
16515;DHT22;8370;52.556;7.970;2022-10-31T03:35:35;11.50;99.90
16515;DHT22;8370;52.556;7.970;2022-10-31T03:38:02;11.50;99.90
16515;DHT22;8370;52.556;7.970;2022-10-31T03:40:30;11.50;99.90
16515;DHT22;8370;52.556;7.970;2022-10-31T03:43:02;11.40;99.90
16515;DHT22;8370;52.556;7.970;2022-10-31T03:45:30;11.40;99.90
16515;DHT22;8370;52.556;7.970;2022-10-31T03:47:57;11.30;99.90
16515;DHT22;8370;52.556;7.970;2022-10-31T03:50:27;11.30;99.90
16515;DHT22;8370;52.556;7.970;2022-10-31T03:58:04;11.20;99.90
16515;DHT22;8370;52.556;7.970;2022-10-31T04:00:34;11.20;99.90
16515;DHT22;8370;52.556;7.970;2022-10-31T04:03:04;11.10;99.90
16515;DHT22;8370;52.556;7.970;2022-10-31T04:05:32;11.10;99.90
16515;DHT22;8370;52.556;7.970;2022-10-31T04:07:59;11.00;99.90
16515;DHT22;8370;52.556;7.970;2022-10-31T04:10:26;11.00;99.90
16515;DHT22;8370;52.556;7.970;2022-10-31T04:13:00;11.00;99.90
16515;DHT22;8370;52.556;7.970;2022-10-31T04:15:27;11.00;99.90
16515;DHT22;8370;52.556;7.970;2022-10-31T04:17:56;10.90;99.90
16515;DHT22;8370;52.556;7.970;2022-10-31T04:20:34;10.90;99.90
16515;DHT22;8370;52.556;7.970;2022-10-31T04:23:00;10.90;99.90
16515;DHT22;8370;52.556;7.970;2022-10-31T04:25:26;10.80;99.90
16515;DHT22;8370;52.556;7.970;2022-10-31T04:27:52;10.80;99.90
16515;DHT22;8370;52.556;7.970;2022-10-31T04:30:17;10.70;99.90
16515;DHT22;8370;52.556;7.970;2022-10-31T04:32:43;10.70;99.90
16515;DHT22;8370;52.556;7.970;2022-10-31T04:35:08;10.70;99.90
16515;DHT22;8370;52.556;7.970;2022-10-31T04:37:34;10.70;99.90
16515;DHT22;8370;52.556;7.970;2022-10-31T04:39:59;10.70;99.90
16515;DHT22;8370;52.556;7.970;2022-10-31T04:42:26;10.70;99.90
16515;DHT22;8370;52.556;7.970;2022-10-31T04:44:53;10.60;99.90
16515;DHT22;8370;52.556;7.970;2022-10-31T04:47:19;10.60;99.90
16515;DHT22;8370;52.556;7.970;2022-10-31T04:49:44;10.60;99.90
16515;DHT22;8370;52.556;7.970;2022-10-31T04:52:10;10.60;99.90
16515;DHT22;8370;52.556;7.970;2022-10-31T04:54:35;10.60;99.90
16515;DHT22;8370;52.556;7.970;2022-10-31T04:57:01;10.60;99.90
16515;DHT22;8370;52.556;7.970;2022-10-31T04:59:26;10.60;99.90
16515;DHT22;8370;52.556;7.970;2022-10-31T05:01:52;10.60;99.90
16515;DHT22;8370;52.556;7.970;2022-10-31T05:04:17;10.60;99.90
16515;DHT22;8370;52.556;7.970;2022-10-31T05:06:43;10.60;99.90
16515;DHT22;8370;52.556;7.970;2022-10-31T05:09:08;10.50;99.90
16515;DHT22;8370;52.556;7.970;2022-10-31T05:11:34;10.50;99.90
16515;DHT22;8370;52.556;7.970;2022-10-31T05:14:00;10.50;99.90
16515;DHT22;8370;52.556;7.970;2022-10-31T05:16:25;10.50;99.90
16515;DHT22;8370;52.556;7.970;2022-10-31T05:18:51;10.40;99.90
16515;DHT22;8370;52.556;7.970;2022-10-31T05:21:16;10.40;99.90
16515;DHT22;8370;52.556;7.970;2022-10-31T05:23:42;10.50;99.90
16515;DHT22;8370;52.556;7.970;2022-10-31T05:26:07;10.40;99.90
16515;DHT22;8370;52.556;7.970;2022-10-31T05:28:33;10.40;99.90
16515;DHT22;8370;52.556;7.970;2022-10-31T05:30:58;10.40;99.90
16515;DHT22;8370;52.556;7.970;2022-10-31T05:33:24;10.30;99.90
16515;DHT22;8370;52.556;7.970;2022-10-31T05:35:49;10.30;99.90
16515;DHT22;8370;52.556;7.970;2022-10-31T05:38:15;10.30;99.90
16515;DHT22;8370;52.556;7.970;2022-10-31T05:40:40;10.30;99.90
16515;DHT22;8370;52.556;7.970;2022-10-31T05:43:06;10.30;99.90
16515;DHT22;8370;52.556;7.970;2022-10-31T05:45:31;10.20;99.90
16515;DHT22;8370;52.556;7.970;2022-10-31T05:47:59;10.20;99.90
16515;DHT22;8370;52.556;7.970;2022-10-31T05:50:26;10.10;99.90
16515;DHT22;8370;52.556;7.970;2022-10-31T05:55:21;10.10;99.90
16515;DHT22;8370;52.556;7.970;2022-10-31T05:57:47;10.10;99.90
16515;DHT22;8370;52.556;7.970;2022-10-31T06:00:13;10.00;99.90
16515;DHT22;8370;52.556;7.970;2022-10-31T06:02:38;10.00;99.90
16515;DHT22;8370;52.556;7.970;2022-10-31T06:05:04;10.00;99.90
16515;DHT22;8370;52.556;7.970;2022-10-31T06:07:33;10.00;99.90
16515;DHT22;8370;52.556;7.970;2022-10-31T06:09:59;10.00;99.90
16515;DHT22;8370;52.556;7.970;2022-10-31T06:12:25;10.00;99.90
16515;DHT22;8370;52.556;7.970;2022-10-31T06:14:51;10.00;99.90
16515;DHT22;8370;52.556;7.970;2022-10-31T06:17:16;10.00;99.90
16515;DHT22;8370;52.556;7.970;2022-10-31T06:19:42;10.00;99.90
16515;DHT22;8370;52.556;7.970;2022-10-31T06:22:07;10.10;99.90
16515;DHT22;8370;52.556;7.970;2022-10-31T06:24:33;10.10;99.90
16515;DHT22;8370;52.556;7.970;2022-10-31T06:26:58;10.10;99.90
16515;DHT22;8370;52.556;7.970;2022-10-31T06:29:24;10.10;99.90
16515;DHT22;8370;52.556;7.970;2022-10-31T06:31:52;10.10;99.90
16515;DHT22;8370;52.556;7.970;2022-10-31T06:34:18;10.20;99.90
16515;DHT22;8370;52.556;7.970;2022-10-31T06:36:45;10.20;99.90
16515;DHT22;8370;52.556;7.970;2022-10-31T06:39:11;10.20;99.90
16515;DHT22;8370;52.556;7.970;2022-10-31T06:41:36;10.30;99.90
16515;DHT22;8370;52.556;7.970;2022-10-31T06:44:02;10.30;99.90
16515;DHT22;8370;52.556;7.970;2022-10-31T06:46:28;10.30;99.90
16515;DHT22;8370;52.556;7.970;2022-10-31T06:48:53;10.20;99.90
16515;DHT22;8370;52.556;7.970;2022-10-31T06:51:19;10.20;99.90
16515;DHT22;8370;52.556;7.970;2022-10-31T06:53:44;10.20;99.90
16515;DHT22;8370;52.556;7.970;2022-10-31T06:56:10;10.20;99.90
16515;DHT22;8370;52.556;7.970;2022-10-31T06:58:35;10.30;99.90
16515;DHT22;8370;52.556;7.970;2022-10-31T07:01:01;10.30;99.90
16515;DHT22;8370;52.556;7.970;2022-10-31T07:03:27;10.30;99.90
16515;DHT22;8370;52.556;7.970;2022-10-31T07:05:55;10.30;99.90
16515;DHT22;8370;52.556;7.970;2022-10-31T07:08:20;10.30;99.90
16515;DHT22;8370;52.556;7.970;2022-10-31T07:10:52;10.30;99.90
16515;DHT22;8370;52.556;7.970;2022-10-31T07:13:18;10.30;99.90
16515;DHT22;8370;52.556;7.970;2022-10-31T07:15:43;10.30;99.90
16515;DHT22;8370;52.556;7.970;2022-10-31T07:18:10;10.40;99.90
16515;DHT22;8370;52.556;7.970;2022-10-31T07:20:36;10.40;99.90
16515;DHT22;8370;52.556;7.970;2022-10-31T07:23:03;10.40;99.90
16515;DHT22;8370;52.556;7.970;2022-10-31T07:25:28;10.40;99.90
16515;DHT22;8370;52.556;7.970;2022-10-31T07:27:54;10.50;99.90
16515;DHT22;8370;52.556;7.970;2022-10-31T07:30:20;10.60;99.90
16515;DHT22;8370;52.556;7.970;2022-10-31T07:32:50;10.60;99.90
16515;DHT22;8370;52.556;7.970;2022-10-31T07:35:21;10.60;99.90
16515;DHT22;8370;52.556;7.970;2022-10-31T07:37:48;10.70;99.90
16515;DHT22;8370;52.556;7.970;2022-10-31T07:40:13;10.70;99.90
16515;DHT22;8370;52.556;7.970;2022-10-31T07:42:41;10.80;99.90
16515;DHT22;8370;52.556;7.970;2022-10-31T07:45:09;10.80;99.90
16515;DHT22;8370;52.556;7.970;2022-10-31T07:47:46;10.90;99.90
16515;DHT22;8370;52.556;7.970;2022-10-31T07:50:18;11.00;99.90
16515;DHT22;8370;52.556;7.970;2022-10-31T07:52:44;11.00;99.90
16515;DHT22;8370;52.556;7.970;2022-10-31T07:55:10;11.10;99.90
16515;DHT22;8370;52.556;7.970;2022-10-31T07:57:36;11.10;99.90
16515;DHT22;8370;52.556;7.970;2022-10-31T08:00:05;11.10;99.90
16515;DHT22;8370;52.556;7.970;2022-10-31T08:02:32;11.20;99.90
16515;DHT22;8370;52.556;7.970;2022-10-31T08:04:57;11.20;99.90
16515;DHT22;8370;52.556;7.970;2022-10-31T08:07:23;11.30;99.90
16515;DHT22;8370;52.556;7.970;2022-10-31T08:09:48;11.30;99.90
16515;DHT22;8370;52.556;7.970;2022-10-31T08:12:14;11.40;99.90
16515;DHT22;8370;52.556;7.970;2022-10-31T08:14:39;11.40;99.90
16515;DHT22;8370;52.556;7.970;2022-10-31T08:17:05;11.40;99.90
16515;DHT22;8370;52.556;7.970;2022-10-31T08:19:30;11.50;99.90
16515;DHT22;8370;52.556;7.970;2022-10-31T08:21:56;11.60;99.90
16515;DHT22;8370;52.556;7.970;2022-10-31T08:24:21;11.60;99.90
16515;DHT22;8370;52.556;7.970;2022-10-31T08:26:47;11.70;99.90
16515;DHT22;8370;52.556;7.970;2022-10-31T08:29:13;11.80;99.90
16515;DHT22;8370;52.556;7.970;2022-10-31T08:31:40;11.80;99.90
16515;DHT22;8370;52.556;7.970;2022-10-31T08:34:05;11.90;99.90
16515;DHT22;8370;52.556;7.970;2022-10-31T08:36:31;11.90;99.90
16515;DHT22;8370;52.556;7.970;2022-10-31T08:38:56;12.00;99.90
16515;DHT22;8370;52.556;7.970;2022-10-31T08:41:22;12.10;99.90
16515;DHT22;8370;52.556;7.970;2022-10-31T08:43:48;12.10;99.90
16515;DHT22;8370;52.556;7.970;2022-10-31T08:46:13;12.10;99.90
16515;DHT22;8370;52.556;7.970;2022-10-31T08:48:39;12.20;99.90
16515;DHT22;8370;52.556;7.970;2022-10-31T08:51:05;12.20;99.90
16515;DHT22;8370;52.556;7.970;2022-10-31T08:53:30;12.30;99.90
16515;DHT22;8370;52.556;7.970;2022-10-31T08:55:56;12.40;99.90
16515;DHT22;8370;52.556;7.970;2022-10-31T08:58:23;12.50;99.90
16515;DHT22;8370;52.556;7.970;2022-10-31T09:00:52;12.60;99.90
16515;DHT22;8370;52.556;7.970;2022-10-31T09:03:26;12.70;99.90
16515;DHT22;8370;52.556;7.970;2022-10-31T09:05:55;12.70;99.90
16515;DHT22;8370;52.556;7.970;2022-10-31T09:08:21;12.80;99.90
16515;DHT22;8370;52.556;7.970;2022-10-31T09:10:47;12.90;99.90
16515;DHT22;8370;52.556;7.970;2022-10-31T09:13:15;13.10;99.90
16515;DHT22;8370;52.556;7.970;2022-10-31T09:15:44;13.20;99.90
16515;DHT22;8370;52.556;7.970;2022-10-31T09:18:11;13.30;99.90
16515;DHT22;8370;52.556;7.970;2022-10-31T09:20:38;13.40;99.90
16515;DHT22;8370;52.556;7.970;2022-10-31T09:23:14;13.60;99.90
16515;DHT22;8370;52.556;7.970;2022-10-31T09:25:41;13.70;99.90
16515;DHT22;8370;52.556;7.970;2022-10-31T09:28:09;13.80;99.90
16515;DHT22;8370;52.556;7.970;2022-10-31T09:30:36;13.90;99.90
16515;DHT22;8370;52.556;7.970;2022-10-31T09:33:06;14.00;99.90
16515;DHT22;8370;52.556;7.970;2022-10-31T09:35:34;14.20;99.90
16515;DHT22;8370;52.556;7.970;2022-10-31T09:38:02;14.30;99.90
16515;DHT22;8370;52.556;7.970;2022-10-31T09:40:34;14.50;99.90
16515;DHT22;8370;52.556;7.970;2022-10-31T09:51:05;14.90;99.90
16515;DHT22;8370;52.556;7.970;2022-10-31T09:53:51;15.10;99.90
16515;DHT22;8370;52.556;7.970;2022-10-31T09:56:20;15.30;99.90
16515;DHT22;8370;52.556;7.970;2022-10-31T09:58:50;15.70;99.90
16515;DHT22;8370;52.556;7.970;2022-10-31T10:01:32;16.20;99.90
16515;DHT22;8370;52.556;7.970;2022-10-31T10:06:43;17.10;99.90
16515;DHT22;8370;52.556;7.970;2022-10-31T10:09:10;17.30;99.90
16515;DHT22;8370;52.556;7.970;2022-10-31T10:12:08;17.20;99.90
16515;DHT22;8370;52.556;7.970;2022-10-31T10:14:41;17.20;99.90
16515;DHT22;8370;52.556;7.970;2022-10-31T10:17:19;17.10;99.90
16515;DHT22;8370;52.556;7.970;2022-10-31T10:25:44;17.00;99.90
16515;DHT22;8370;52.556;7.970;2022-10-31T10:28:21;16.90;99.90
16515;DHT22;8370;52.556;7.970;2022-10-31T10:31:10;16.90;99.90
16515;DHT22;8370;52.556;7.970;2022-10-31T10:33:47;17.00;99.90
16515;DHT22;8370;52.556;7.970;2022-10-31T10:38:52;17.10;99.90
16515;DHT22;8370;52.556;7.970;2022-10-31T10:41:21;17.00;99.90
16515;DHT22;8370;52.556;7.970;2022-10-31T10:43:49;16.90;99.90
16515;DHT22;8370;52.556;7.970;2022-10-31T10:49:33;16.70;99.90
16515;DHT22;8370;52.556;7.970;2022-10-31T10:52:31;16.60;99.90
16515;DHT22;8370;52.556;7.970;2022-10-31T10:58:04;16.60;99.90
16515;DHT22;8370;52.556;7.970;2022-10-31T11:00:35;16.80;99.90
16515;DHT22;8370;52.556;7.970;2022-10-31T11:03:01;17.00;99.90
16515;DHT22;8370;52.556;7.970;2022-10-31T11:05:47;17.20;99.90
16515;DHT22;8370;52.556;7.970;2022-10-31T11:08:27;17.20;99.90
16515;DHT22;8370;52.556;7.970;2022-10-31T11:13:48;17.60;99.90
16515;DHT22;8370;52.556;7.970;2022-10-31T11:18:52;17.50;99.90
16515;DHT22;8370;52.556;7.970;2022-10-31T11:21:24;17.60;99.90
16515;DHT22;8370;52.556;7.970;2022-10-31T11:24:23;17.70;99.90
16515;DHT22;8370;52.556;7.970;2022-10-31T11:26:49;17.90;99.90
16515;DHT22;8370;52.556;7.970;2022-10-31T11:29:25;18.20;99.90
16515;DHT22;8370;52.556;7.970;2022-10-31T11:31:55;18.50;99.90
16515;DHT22;8370;52.556;7.970;2022-10-31T11:34:31;18.90;99.90
16515;DHT22;8370;52.556;7.970;2022-10-31T11:37:27;19.10;99.90
16515;DHT22;8370;52.556;7.970;2022-10-31T11:39:57;19.10;99.90
16515;DHT22;8370;52.556;7.970;2022-10-31T11:42:26;19.00;99.90
16515;DHT22;8370;52.556;7.970;2022-10-31T11:44:53;18.90;99.90
16515;DHT22;8370;52.556;7.970;2022-10-31T11:47:30;18.80;99.90
16515;DHT22;8370;52.556;7.970;2022-10-31T11:50:01;18.60;99.90
16515;DHT22;8370;52.556;7.970;2022-10-31T11:52:31;18.40;99.90
16515;DHT22;8370;52.556;7.970;2022-10-31T11:55:01;18.30;99.90
16515;DHT22;8370;52.556;7.970;2022-10-31T11:57:32;18.10;99.90
16515;DHT22;8370;52.556;7.970;2022-10-31T12:00:01;17.90;99.90
16515;DHT22;8370;52.556;7.970;2022-10-31T12:02:28;17.70;99.90
16515;DHT22;8370;52.556;7.970;2022-10-31T12:05:26;17.50;99.90
16515;DHT22;8370;52.556;7.970;2022-10-31T12:07:56;17.40;99.90
16515;DHT22;8370;52.556;7.970;2022-10-31T12:10:28;17.20;99.90
16515;DHT22;8370;52.556;7.970;2022-10-31T12:13:08;17.10;99.90
16515;DHT22;8370;52.556;7.970;2022-10-31T12:15:50;17.00;99.90
16515;DHT22;8370;52.556;7.970;2022-10-31T12:21:21;17.00;99.90
16515;DHT22;8370;52.556;7.970;2022-10-31T12:24:11;17.10;99.90
16515;DHT22;8370;52.556;7.970;2022-10-31T12:29:56;17.50;99.90
16515;DHT22;8370;52.556;7.970;2022-10-31T12:43:55;18.10;99.90
16515;DHT22;8370;52.556;7.970;2022-10-31T12:46:50;18.00;99.90
16515;DHT22;8370;52.556;7.970;2022-10-31T12:49:28;17.80;99.90
16515;DHT22;8370;52.556;7.970;2022-10-31T12:52:18;17.60;99.90
16515;DHT22;8370;52.556;7.970;2022-10-31T13:00:18;17.20;99.90
16515;DHT22;8370;52.556;7.970;2022-10-31T13:05:39;17.00;99.90
16515;DHT22;8370;52.556;7.970;2022-10-31T13:08:15;16.90;99.90
16515;DHT22;8370;52.556;7.970;2022-10-31T13:15:51;17.00;99.90
16515;DHT22;8370;52.556;7.970;2022-10-31T13:21:36;17.10;99.90
16515;DHT22;8370;52.556;7.970;2022-10-31T13:24:05;17.30;99.90
16515;DHT22;8370;52.556;7.970;2022-10-31T13:26:50;17.50;99.90
16515;DHT22;8370;52.556;7.970;2022-10-31T13:29:36;17.70;99.90
16515;DHT22;8370;52.556;7.970;2022-10-31T13:32:05;17.80;99.90
16515;DHT22;8370;52.556;7.970;2022-10-31T13:34:39;17.90;99.90
16515;DHT22;8370;52.556;7.970;2022-10-31T13:39:59;17.90;99.90
16515;DHT22;8370;52.556;7.970;2022-10-31T13:42:53;17.80;99.90
16515;DHT22;8370;52.556;7.970;2022-10-31T13:45:22;17.70;99.90
16515;DHT22;8370;52.556;7.970;2022-10-31T13:47:57;17.60;99.90
16515;DHT22;8370;52.556;7.970;2022-10-31T13:50:26;17.50;99.90
16515;DHT22;8370;52.556;7.970;2022-10-31T13:53:13;17.40;99.90
16515;DHT22;8370;52.556;7.970;2022-10-31T13:55:45;17.40;99.90
16515;DHT22;8370;52.556;7.970;2022-10-31T13:58:28;17.30;99.90
16515;DHT22;8370;52.556;7.970;2022-10-31T14:03:38;17.20;99.90
16515;DHT22;8370;52.556;7.970;2022-10-31T14:06:06;17.10;99.90
16515;DHT22;8370;52.556;7.970;2022-10-31T14:08:35;17.10;99.90
16515;DHT22;8370;52.556;7.970;2022-10-31T14:11:02;17.00;99.90
16515;DHT22;8370;52.556;7.970;2022-10-31T14:13:38;16.90;99.90
16515;DHT22;8370;52.556;7.970;2022-10-31T14:16:18;16.90;99.90
16515;DHT22;8370;52.556;7.970;2022-10-31T14:18:50;16.80;99.90
16515;DHT22;8370;52.556;7.970;2022-10-31T14:23:49;16.70;99.90
16515;DHT22;8370;52.556;7.970;2022-10-31T14:29:02;16.60;99.90
16515;DHT22;8370;52.556;7.970;2022-10-31T14:31:31;16.50;99.90
16515;DHT22;8370;52.556;7.970;2022-10-31T14:34:01;16.50;99.90
16515;DHT22;8370;52.556;7.970;2022-10-31T14:47:22;16.40;99.90
16515;DHT22;8370;52.556;7.970;2022-10-31T14:50:07;16.40;99.90
16515;DHT22;8370;52.556;7.970;2022-10-31T14:52:36;16.40;99.90
16515;DHT22;8370;52.556;7.970;2022-10-31T14:55:06;16.30;99.90
16515;DHT22;8370;52.556;7.970;2022-10-31T14:57:37;16.30;99.90
16515;DHT22;8370;52.556;7.970;2022-10-31T15:00:15;16.30;99.90
16515;DHT22;8370;52.556;7.970;2022-10-31T15:03:03;16.30;99.90
16515;DHT22;8370;52.556;7.970;2022-10-31T15:05:30;16.20;99.90
16515;DHT22;8370;52.556;7.970;2022-10-31T15:07:57;16.20;99.90
16515;DHT22;8370;52.556;7.970;2022-10-31T15:10:29;16.10;99.90
16515;DHT22;8370;52.556;7.970;2022-10-31T15:13:17;16.10;99.90
16515;DHT22;8370;52.556;7.970;2022-10-31T15:15:44;16.00;99.90
16515;DHT22;8370;52.556;7.970;2022-10-31T15:18:17;16.00;99.90
16515;DHT22;8370;52.556;7.970;2022-10-31T15:20:44;15.90;99.90
16515;DHT22;8370;52.556;7.970;2022-10-31T15:23:14;15.90;99.90
16515;DHT22;8370;52.556;7.970;2022-10-31T15:25:41;15.80;99.90
16515;DHT22;8370;52.556;7.970;2022-10-31T15:28:15;15.80;99.90
16515;DHT22;8370;52.556;7.970;2022-10-31T15:30:50;15.80;99.90
16515;DHT22;8370;52.556;7.970;2022-10-31T15:33:31;15.70;99.90
16515;DHT22;8370;52.556;7.970;2022-10-31T15:36:01;15.70;99.90
16515;DHT22;8370;52.556;7.970;2022-10-31T15:38:28;15.70;99.90
16515;DHT22;8370;52.556;7.970;2022-10-31T15:41:05;15.60;99.90
16515;DHT22;8370;52.556;7.970;2022-10-31T15:43:36;15.60;99.90
16515;DHT22;8370;52.556;7.970;2022-10-31T15:46:06;15.60;99.90
16515;DHT22;8370;52.556;7.970;2022-10-31T15:48:32;15.50;99.90
16515;DHT22;8370;52.556;7.970;2022-10-31T15:50:59;15.50;99.90
16515;DHT22;8370;52.556;7.970;2022-10-31T15:53:30;15.40;99.90
16515;DHT22;8370;52.556;7.970;2022-10-31T15:56:08;15.40;99.90
16515;DHT22;8370;52.556;7.970;2022-10-31T15:58:47;15.30;99.90
16515;DHT22;8370;52.556;7.970;2022-10-31T16:01:28;15.30;99.90
16515;DHT22;8370;52.556;7.970;2022-10-31T16:04:21;15.20;99.90
16515;DHT22;8370;52.556;7.970;2022-10-31T16:07:15;15.20;99.90
16515;DHT22;8370;52.556;7.970;2022-10-31T16:09:55;15.10;99.90
16515;DHT22;8370;52.556;7.970;2022-10-31T16:12:22;15.10;99.90
16515;DHT22;8370;52.556;7.970;2022-10-31T16:14:52;15.10;99.90
16515;DHT22;8370;52.556;7.970;2022-10-31T16:17:21;15.10;99.90
16515;DHT22;8370;52.556;7.970;2022-10-31T16:19:50;15.10;99.90
16515;DHT22;8370;52.556;7.970;2022-10-31T16:22:37;15.00;99.90
16515;DHT22;8370;52.556;7.970;2022-10-31T16:25:13;15.00;99.90
16515;DHT22;8370;52.556;7.970;2022-10-31T16:27:40;15.10;99.90
16515;DHT22;8370;52.556;7.970;2022-10-31T16:30:29;15.00;99.90
16515;DHT22;8370;52.556;7.970;2022-10-31T16:33:00;15.00;99.90
16515;DHT22;8370;52.556;7.970;2022-10-31T16:35:37;15.00;99.90
16515;DHT22;8370;52.556;7.970;2022-10-31T16:38:04;15.00;99.90
16515;DHT22;8370;52.556;7.970;2022-10-31T16:40:30;15.00;99.90
16515;DHT22;8370;52.556;7.970;2022-10-31T16:42:59;14.90;99.90
16515;DHT22;8370;52.556;7.970;2022-10-31T16:45:27;14.90;99.90
16515;DHT22;8370;52.556;7.970;2022-10-31T16:47:54;14.90;99.90
16515;DHT22;8370;52.556;7.970;2022-10-31T16:50:27;14.90;99.90
16515;DHT22;8370;52.556;7.970;2022-10-31T16:52:52;14.90;99.90
16515;DHT22;8370;52.556;7.970;2022-10-31T16:55:19;14.80;99.90
16515;DHT22;8370;52.556;7.970;2022-10-31T16:57:48;14.80;99.90
16515;DHT22;8370;52.556;7.970;2022-10-31T17:00:19;14.80;99.90
16515;DHT22;8370;52.556;7.970;2022-10-31T17:02:45;14.70;99.90
16515;DHT22;8370;52.556;7.970;2022-10-31T17:05:13;14.80;99.90
16515;DHT22;8370;52.556;7.970;2022-10-31T17:07:40;14.70;99.90
16515;DHT22;8370;52.556;7.970;2022-10-31T17:10:06;14.70;99.90
16515;DHT22;8370;52.556;7.970;2022-10-31T17:12:32;14.60;99.90
16515;DHT22;8370;52.556;7.970;2022-10-31T17:14:58;14.60;99.90
16515;DHT22;8370;52.556;7.970;2022-10-31T17:17:24;14.60;99.90
16515;DHT22;8370;52.556;7.970;2022-10-31T17:19:49;14.60;99.90
16515;DHT22;8370;52.556;7.970;2022-10-31T17:22:15;14.60;99.90
16515;DHT22;8370;52.556;7.970;2022-10-31T17:24:41;14.60;99.90
16515;DHT22;8370;52.556;7.970;2022-10-31T17:27:06;14.60;99.90
16515;DHT22;8370;52.556;7.970;2022-10-31T17:29:32;14.60;99.90
16515;DHT22;8370;52.556;7.970;2022-10-31T17:31:58;14.50;99.90
16515;DHT22;8370;52.556;7.970;2022-10-31T17:34:24;14.50;99.90
16515;DHT22;8370;52.556;7.970;2022-10-31T17:36:51;14.60;99.90
16515;DHT22;8370;52.556;7.970;2022-10-31T17:39:17;14.50;99.90
16515;DHT22;8370;52.556;7.970;2022-10-31T17:41:43;14.50;99.90
16515;DHT22;8370;52.556;7.970;2022-10-31T17:44:11;14.50;99.90
16515;DHT22;8370;52.556;7.970;2022-10-31T17:46:37;14.50;99.90
16515;DHT22;8370;52.556;7.970;2022-10-31T17:49:03;14.40;99.90
16515;DHT22;8370;52.556;7.970;2022-10-31T17:51:31;14.40;99.90
16515;DHT22;8370;52.556;7.970;2022-10-31T17:53:57;14.40;99.90